Time;durP1;ratioP1;P1;durP2;ratioP2;P2;SDS_P1;SDS_P2;PMS_P1;PMS_P2;Temp;Humidity;BMP_temperature;BMP_pressure;BME280_temperature;BME280_humidity;BME280_pressure;Samples;Min_cycle;Max_cycle;Signal;HPM_P1;HPM_P2
2022/04/26 03:36:32;;;;;;;19.50;11.50;;;;;;;6.30;100.00;99165.95;103538;1303;23598;-29
2022/04/26 03:39:01;;;;;;;22.10;12.20;;;;;;;6.21;100.00;99167.04;103556;1303;23645;-29
2022/04/26 03:41:31;;;;;;;20.50;12.20;;;;;;;6.19;100.00;99169.98;103567;1303;24233;-24
2022/04/26 03:44:00;;;;;;;17.80;10.30;;;;;;;6.18;100.00;99175.57;103570;1303;23641;-24
2022/04/26 03:46:29;;;;;;;17.80;10.40;;;;;;;6.23;100.00;99172.98;103549;1301;24243;-24
2022/04/26 03:48:58;;;;;;;24.50;13.60;;;;;;;6.15;100.00;99176.55;103563;1303;24366;-29
2022/04/26 03:51:27;;;;;;;18.00;12.20;;;;;;;6.19;100.00;99179.90;103494;1303;23639;-28
2022/04/26 03:53:56;;;;;;;18.10;10.60;;;;;;;6.15;100.00;99177.13;103539;1303;24969;-29
2022/04/26 03:56:25;;;;;;;16.20;11.90;;;;;;;6.12;100.00;99179.36;103536;1303;24100;-28
2022/04/26 03:58:54;;;;;;;18.20;10.90;;;;;;;6.04;100.00;99181.30;103586;1303;23788;-31
2022/04/26 04:01:22;;;;;;;14.50;10.60;;;;;;;6.11;100.00;99183.94;103504;1303;22657;-30
2022/04/26 04:03:51;;;;;;;16.90;11.00;;;;;;;6.14;100.00;99182.23;103565;1303;22518;-31
2022/04/26 04:06:20;;;;;;;23.00;13.30;;;;;;;6.18;100.00;99181.20;103554;1301;23609;-24
2022/04/26 04:08:49;;;;;;;15.90;10.60;;;;;;;6.14;100.00;99187.70;103521;1303;22517;-28
2022/04/26 04:11:18;;;;;;;20.50;11.80;;;;;;;6.22;100.00;99189.16;103528;1303;22505;-24
2022/04/26 04:13:48;;;;;;;21.40;14.00;;;;;;;6.15;100.00;99192.71;103550;1303;23651;-28
2022/04/26 04:16:17;;;;;;;21.80;11.90;;;;;;;6.12;100.00;99194.86;103298;1303;387504;-28
2022/04/26 04:21:19;;;;;;;17.80;10.80;;;;;;;6.23;100.00;99195.77;103578;1303;23644;-28
2022/04/26 04:23:48;;;;;;;19.30;12.30;;;;;;;6.25;100.00;99198.38;103375;1303;25331;-24
2022/04/26 04:26:17;;;;;;;19.50;12.40;;;;;;;6.18;100.00;99201.51;103350;1303;23637;-24
2022/04/26 04:28:46;;;;;;;21.80;13.20;;;;;;;6.19;100.00;99200.27;103530;1303;22499;-24
2022/04/26 04:31:15;;;;;;;24.80;13.00;;;;;;;6.20;100.00;99209.23;103542;1303;25084;-28
2022/04/26 04:33:44;;;;;;;21.70;12.60;;;;;;;6.26;100.00;99207.92;103528;1303;24214;-31
2022/04/26 04:36:13;;;;;;;22.40;12.70;;;;;;;6.26;100.00;99209.14;103540;1303;23125;-24
2022/04/26 04:38:42;;;;;;;20.40;10.90;;;;;;;6.17;100.00;99212.44;103524;1302;24313;-23
2022/04/26 04:41:11;;;;;;;26.10;13.20;;;;;;;6.18;100.00;99208.84;103569;1303;24273;-25
2022/04/26 04:43:40;;;;;;;22.20;12.10;;;;;;;6.18;100.00;99211.77;103554;1303;22789;-24
2022/04/26 04:46:09;;;;;;;21.40;11.30;;;;;;;6.21;100.00;99215.86;103552;1303;24434;-28
2022/04/26 04:48:38;;;;;;;19.50;11.70;;;;;;;6.22;100.00;99220.92;103518;1303;22740;-27
2022/04/26 04:51:07;;;;;;;22.70;12.00;;;;;;;6.24;100.00;99221.29;103551;1302;22618;-25
2022/04/26 04:53:36;;;;;;;28.20;14.10;;;;;;;6.27;100.00;99225.13;103564;1303;23914;-29
2022/04/26 04:56:09;;;;;;;22.20;13.90;;;;;;;6.24;100.00;99230.45;103458;1303;25120;-29
2022/04/26 04:58:38;;;;;;;22.00;12.30;;;;;;;6.22;100.00;99235.05;103557;1303;22514;-25
2022/04/26 05:01:07;;;;;;;16.30;8.90;;;;;;;6.29;100.00;99239.37;103501;1303;24238;-24
2022/04/26 05:03:36;;;;;;;26.00;14.30;;;;;;;6.37;100.00;99241.49;103545;1303;24351;-29
2022/04/26 05:06:05;;;;;;;26.10;14.60;;;;;;;6.41;100.00;99241.91;103504;1303;23609;-24
2022/04/26 05:08:34;;;;;;;24.30;14.50;;;;;;;6.43;100.00;99245.80;103574;1303;22616;-24
2022/04/26 05:11:03;;;;;;;21.60;13.70;;;;;;;6.42;100.00;99250.35;103472;1303;24345;-29
2022/04/26 05:13:32;;;;;;;23.20;14.30;;;;;;;6.45;100.00;99248.92;103400;1303;22591;-24
2022/04/26 05:16:02;;;;;;;32.40;14.60;;;;;;;6.42;100.00;99257.78;103483;1303;22740;-24
2022/04/26 05:18:31;;;;;;;25.20;15.20;;;;;;;6.45;100.00;99256.70;103330;1304;24287;-29
2022/04/26 05:21:00;;;;;;;20.90;13.20;;;;;;;6.43;100.00;99253.58;103520;1303;23800;-24
2022/04/26 05:26:01;;;;;;;20.10;12.40;;;;;;;6.50;100.00;99254.61;103602;1303;22769;-25
2022/04/26 05:28:30;;;;;;;22.60;13.80;;;;;;;6.46;100.00;99256.06;103477;1302;23745;-25
2022/04/26 05:30:59;;;;;;;25.90;14.30;;;;;;;6.49;100.00;99257.59;103481;1303;24208;-25
2022/04/26 05:33:28;;;;;;;22.50;14.00;;;;;;;6.52;100.00;99256.10;103484;1303;24189;-24
2022/04/26 05:35:57;;;;;;;16.70;12.40;;;;;;;6.44;100.00;99257.08;103541;1303;24298;-25
2022/04/26 05:38:26;;;;;;;26.00;12.80;;;;;;;6.51;100.00;99257.02;103547;1303;23838;-27
2022/04/26 05:40:55;;;;;;;21.40;14.90;;;;;;;6.61;100.00;99259.39;103492;1303;22749;-28
2022/04/26 05:43:24;;;;;;;23.90;13.80;;;;;;;6.57;100.00;99266.55;103298;1303;24225;-26
2022/04/26 05:45:52;;;;;;;21.90;13.80;;;;;;;6.52;100.00;99267.30;103537;1303;23605;-25
2022/04/26 05:48:21;;;;;;;24.80;11.80;;;;;;;6.55;100.00;99271.06;103576;1303;22762;-29
2022/04/26 05:50:51;;;;;;;16.30;12.50;;;;;;;6.69;100.00;99270.42;103550;1303;24262;-29
2022/04/26 05:53:20;;;;;;;17.60;9.30;;;;;;;6.55;100.00;99271.77;103561;1303;24211;-31
2022/04/26 05:55:48;;;;;;;25.00;13.10;;;;;;;6.70;100.00;99277.19;103461;1303;22793;-24
2022/04/26 05:58:17;;;;;;;21.90;12.50;;;;;;;6.58;100.00;99275.52;103527;1303;24973;-30
2022/04/26 06:00:46;;;;;;;21.40;9.10;;;;;;;6.66;100.00;99281.76;103534;1303;22527;-24
2022/04/26 06:03:15;;;;;;;19.50;12.60;;;;;;;6.59;100.00;99282.19;103541;1303;24215;-24
2022/04/26 06:05:44;;;;;;;18.70;10.80;;;;;;;6.50;100.00;99285.56;103446;1303;24241;-24
2022/04/26 06:08:13;;;;;;;20.10;14.00;;;;;;;6.61;100.00;99280.61;103498;1303;25076;-28
2022/04/26 06:10:43;;;;;;;25.40;12.10;;;;;;;6.65;100.00;99282.30;103578;1302;24207;-25
2022/04/26 06:13:12;;;;;;;27.70;13.20;;;;;;;6.68;100.00;99282.98;103468;1303;24961;-29
2022/04/26 06:15:41;;;;;;;23.20;12.90;;;;;;;6.64;100.00;99283.96;103569;1303;24295;-26
2022/04/26 06:18:10;;;;;;;21.50;13.20;;;;;;;6.61;100.00;99286.10;103534;1303;23881;-27
2022/04/26 06:20:39;;;;;;;26.00;13.30;;;;;;;6.55;100.00;99287.45;103515;1303;24374;-25
2022/04/26 06:23:09;;;;;;;26.00;13.70;;;;;;;6.69;100.00;99292.48;103530;1303;22634;-29
2022/04/26 06:25:39;;;;;;;20.10;10.70;;;;;;;6.76;100.00;99293.12;103534;1303;23798;-25
2022/04/26 06:28:09;;;;;;;18.10;10.70;;;;;;;6.75;100.00;99296.19;103299;1302;24188;-29
2022/04/26 06:30:38;;;;;;;19.10;12.10;;;;;;;6.69;100.00;99298.65;103498;1303;25331;-28
2022/04/26 06:33:07;;;;;;;17.70;10.40;;;;;;;6.83;100.00;99299.98;103512;1303;24196;-25
2022/04/26 06:35:36;;;;;;;19.60;11.70;;;;;;;6.79;100.00;99297.66;103542;1303;22907;-28
2022/04/26 06:38:05;;;;;;;20.50;12.40;;;;;;;6.73;100.00;99302.50;103500;1303;24208;-27
2022/04/26 06:40:34;;;;;;;21.90;8.30;;;;;;;6.84;100.00;99308.23;103581;1303;23808;-25
2022/04/26 06:43:03;;;;;;;18.60;10.30;;;;;;;6.87;100.00;99311.55;103477;1303;23849;-28
2022/04/26 06:45:33;;;;;;;22.30;12.30;;;;;;;6.85;100.00;99312.11;103454;1303;24221;-24
2022/04/26 06:48:08;;;;;;;19.90;8.90;;;;;;;6.71;100.00;99312.65;103540;1303;25140;-24
2022/04/26 06:50:37;;;;;;;20.50;10.10;;;;;;;6.69;100.00;99314.77;103510;1302;24317;-30
2022/04/26 06:53:06;;;;;;;13.80;9.70;;;;;;;6.71;100.00;99316.59;103413;1303;22501;-24
2022/04/26 06:55:36;;;;;;;22.70;11.50;;;;;;;6.52;100.00;99314.64;103502;1302;22965;-29
2022/04/26 06:58:06;;;;;;;20.70;13.00;;;;;;;6.52;100.00;99313.64;103544;1303;22505;-31
2022/04/26 07:00:35;;;;;;;17.40;11.80;;;;;;;6.40;100.00;99315.07;103484;1303;24305;-26
2022/04/26 07:03:05;;;;;;;19.30;12.60;;;;;;;6.37;100.00;99320.78;103570;1303;22818;-24
2022/04/26 07:05:34;;;;;;;20.00;11.80;;;;;;;6.38;100.00;99324.42;103355;1303;23911;-24
2022/04/26 07:08:03;;;;;;;16.10;11.10;;;;;;;6.42;100.00;99327.14;103577;1303;22704;-28
2022/04/26 07:10:32;;;;;;;15.70;11.10;;;;;;;6.47;100.00;99323.22;103434;1303;23839;-28
2022/04/26 07:13:01;;;;;;;27.70;12.30;;;;;;;6.54;100.00;99323.69;103555;1303;23599;-31
2022/04/26 07:15:31;;;;;;;36.80;16.70;;;;;;;6.50;100.00;99327.35;103569;1303;23596;-26
2022/04/26 07:18:00;;;;;;;29.00;15.00;;;;;;;6.53;100.00;99327.34;103517;1303;22691;-25
2022/04/26 07:20:30;;;;;;;21.30;10.90;;;;;;;6.56;100.00;99327.76;103561;1301;24391;-29
2022/04/26 07:23:00;;;;;;;19.80;10.30;;;;;;;6.51;100.00;99329.75;103483;1303;24330;-29
2022/04/26 07:25:29;;;;;;;26.50;12.30;;;;;;;6.66;100.00;99328.73;103558;1302;23593;-24
2022/04/26 07:27:58;;;;;;;15.60;9.50;;;;;;;6.80;100.00;99333.76;103351;1303;24096;-27
2022/04/26 07:30:34;;;;;;;22.30;11.30;;;;;;;6.78;100.00;99336.64;103552;1303;22501;-31
2022/04/26 07:35:36;;;;;;;15.90;9.10;;;;;;;6.89;100.00;99347.72;103530;1303;24226;-25
2022/04/26 07:38:06;;;;;;;16.20;11.10;;;;;;;6.75;100.00;99347.40;103540;1303;23886;-24
2022/04/26 07:40:35;;;;;;;16.10;11.60;;;;;;;6.75;100.00;99350.96;103528;1303;22616;-25
2022/04/26 07:43:04;;;;;;;18.30;11.00;;;;;;;6.93;100.00;99348.92;103612;1303;23838;-29
2022/04/26 07:45:38;;;;;;;19.20;10.90;;;;;;;7.06;100.00;99351.06;103460;1303;22511;-29
2022/04/26 07:48:07;;;;;;;22.10;10.30;;;;;;;6.96;100.00;99349.67;103530;1302;23946;-29
2022/04/26 07:50:36;;;;;;;22.40;11.40;;;;;;;7.05;100.00;99352.27;103527;1303;24251;-29
2022/04/26 07:53:05;;;;;;;20.20;12.60;;;;;;;7.08;100.00;99353.55;103535;1303;23812;-27
2022/04/26 07:55:36;;;;;;;22.40;11.40;;;;;;;7.44;100.00;99357.21;103519;1303;24281;-26
2022/04/26 07:58:05;;;;;;;30.70;12.40;;;;;;;7.69;100.00;99357.50;103552;1303;23847;-26
2022/04/26 08:00:35;;;;;;;13.90;9.40;;;;;;;7.82;100.00;99363.63;103505;1303;22499;-29
2022/04/26 08:03:05;;;;;;;17.90;9.50;;;;;;;7.89;100.00;99362.86;103543;1303;24302;-29
2022/04/26 08:05:34;;;;;;;16.30;10.70;;;;;;;8.03;99.68;99364.59;103568;1303;24213;-25
2022/04/26 08:08:03;;;;;;;18.20;12.20;;;;;;;8.44;100.00;99359.33;103523;1303;23968;-26
2022/04/26 08:10:34;;;;;;;12.00;9.10;;;;;;;8.76;99.49;99362.01;103496;1302;24250;-29
2022/04/26 08:13:03;;;;;;;12.70;7.80;;;;;;;8.87;99.57;99367.77;103517;1302;25382;-30
2022/04/26 08:15:32;;;;;;;19.00;10.20;;;;;;;9.23;98.66;99368.77;103594;1303;24417;-29
2022/04/26 08:18:01;;;;;;;14.70;11.20;;;;;;;9.32;98.57;99374.57;103611;1303;24245;-29
2022/04/26 08:20:30;;;;;;;17.40;10.60;;;;;;;9.49;96.19;99376.73;103543;1303;23606;-25
2022/04/26 08:22:59;;;;;;;15.30;9.70;;;;;;;9.53;93.28;99377.84;103529;1303;22500;-25
2022/04/26 08:28:01;;;;;;;9.40;6.50;;;;;;;9.25;89.67;99392.02;103532;1303;24370;-31
2022/04/26 08:30:30;;;;;;;6.20;4.80;;;;;;;9.09;87.77;99391.53;103527;1303;22500;-31
2022/04/26 08:32:59;;;;;;;14.40;7.10;;;;;;;9.01;87.34;99399.09;103395;1303;24021;-29
2022/04/26 08:35:28;;;;;;;10.90;5.40;;;;;;;8.71;87.08;99400.98;103480;1303;24743;-25
2022/04/26 08:37:57;;;;;;;10.00;5.20;;;;;;;8.72;87.93;99404.55;103481;1303;22515;-29
2022/04/26 08:40:26;;;;;;;12.40;5.90;;;;;;;8.66;86.79;99403.73;103527;1303;24195;-28
2022/04/26 08:42:56;;;;;;;9.10;6.40;;;;;;;8.78;87.45;99404.80;103575;1303;24214;-27
2022/04/26 08:45:25;;;;;;;6.40;3.30;;;;;;;9.02;88.25;99401.83;103403;1303;23620;-27
2022/04/26 08:52:59;;;;;;;4.70;3.90;;;;;;;9.29;86.61;99407.68;103561;1303;24253;-29
2022/04/26 08:55:31;;;;;;;5.70;3.50;;;;;;;9.38;83.16;99406.91;103500;1303;23737;-29
2022/04/26 08:58:00;;;;;;;3.80;2.80;;;;;;;9.67;82.47;99410.45;103522;1303;24375;-25
2022/04/26 09:00:29;;;;;;;5.40;3.40;;;;;;;8.85;83.06;99417.63;103533;1303;23885;-24
2022/04/26 09:03:01;;;;;;;3.60;3.20;;;;;;;8.89;83.47;99420.72;103505;1303;23583;-31
2022/04/26 09:05:31;;;;;;;5.20;4.00;;;;;;;8.67;83.79;99421.37;103560;1303;22508;-27
2022/04/26 09:08:02;;;;;;;4.90;4.00;;;;;;;8.93;83.89;99419.85;103584;1303;22517;-29
2022/04/26 09:10:30;;;;;;;4.90;4.20;;;;;;;9.06;83.21;99421.20;103501;1303;23870;-25
2022/04/26 09:13:04;;;;;;;6.30;4.60;;;;;;;9.21;83.28;99420.41;103439;1303;23773;-29
2022/04/26 09:15:35;;;;;;;4.10;3.30;;;;;;;9.41;80.34;99418.09;103587;1303;22495;-30
2022/04/26 09:18:13;;;;;;;4.80;3.10;;;;;;;9.83;79.89;99415.48;103480;1303;25219;-30
2022/04/26 09:20:43;;;;;;;5.30;3.60;;;;;;;10.47;79.44;99417.55;103512;1303;24310;-29
2022/04/26 09:23:15;;;;;;;4.70;3.60;;;;;;;10.77;78.10;99420.91;103509;1303;23781;-29
2022/04/26 09:25:45;;;;;;;3.80;3.00;;;;;;;10.72;74.90;99424.48;103533;1303;25025;-29
2022/04/26 09:28:19;;;;;;;4.20;2.70;;;;;;;10.76;75.10;99426.77;103479;1303;24017;-25
2022/04/26 09:30:48;;;;;;;4.80;3.30;;;;;;;10.97;73.45;99429.08;103537;1303;22937;-26
2022/04/26 09:33:31;;;;;;;5.00;3.30;;;;;;;11.04;73.04;99430.36;103516;1303;25012;-28
2022/04/26 09:36:01;;;;;;;3.40;2.80;;;;;;;11.35;72.62;99432.00;103363;1303;24265;-30
2022/04/26 09:38:33;;;;;;;3.80;2.60;;;;;;;11.80;72.97;99434.21;103540;1303;23596;-27
2022/04/26 09:41:04;;;;;;;6.70;3.80;;;;;;;11.90;71.26;99429.94;103487;1302;25362;-25
2022/04/26 09:43:33;;;;;;;5.90;4.10;;;;;;;11.68;70.34;99430.73;103479;1303;25010;-25
2022/04/26 09:46:04;;;;;;;10.20;5.60;;;;;;;11.89;69.93;99426.84;103466;1303;24245;-29
2022/04/26 09:48:35;;;;;;;19.10;4.70;;;;;;;11.85;67.78;99424.50;103500;1303;25223;-28
2022/04/26 09:51:05;;;;;;;9.00;5.40;;;;;;;12.34;69.93;99426.39;103482;1303;23967;-28
2022/04/26 09:53:35;;;;;;;5.30;3.20;;;;;;;12.75;66.96;99423.15;103509;1303;24195;-28
2022/04/26 09:56:04;;;;;;;2.00;1.70;;;;;;;12.86;64.85;99424.55;103505;1303;22731;-29
2022/04/26 09:58:37;;;;;;;5.60;2.70;;;;;;;13.05;63.91;99426.45;103532;1303;23956;-25
2022/04/26 10:01:06;;;;;;;2.80;2.50;;;;;;;13.90;62.10;99423.13;103538;1303;23998;-29
2022/04/26 10:03:36;;;;;;;3.50;3.10;;;;;;;13.52;60.76;99421.19;103583;1303;22495;-28
2022/04/26 10:06:07;;;;;;;5.00;2.90;;;;;;;13.61;63.02;99421.90;103369;1303;25343;-27
2022/04/26 10:08:36;;;;;;;4.70;3.60;;;;;;;13.41;61.31;99423.75;103530;1303;22677;-31
2022/04/26 10:11:05;;;;;;;6.60;3.80;;;;;;;13.10;62.14;99424.94;103559;1303;23641;-25
2022/04/26 10:13:36;;;;;;;8.60;5.20;;;;;;;13.25;61.07;99425.06;103700;1303;24293;-29
2022/04/26 10:16:08;;;;;;;3.30;2.80;;;;;;;12.86;62.95;99424.38;103493;1303;25343;-26
2022/04/26 10:18:39;;;;;;;3.50;3.10;;;;;;;12.50;63.39;99426.70;103541;1302;25204;-30
2022/04/26 10:21:08;;;;;;;5.70;2.90;;;;;;;12.91;63.21;99421.84;103567;1303;25340;-28
2022/04/26 10:23:44;;;;;;;6.60;3.40;;;;;;;13.12;61.55;99419.33;103562;1303;23855;-29
2022/04/26 10:26:30;;;;;;;3.80;3.30;;;;;;;13.18;63.23;99418.73;103434;1303;22503;-29
2022/04/26 10:29:00;;;;;;;3.50;3.00;;;;;;;13.92;64.37;99412.95;103563;1303;23609;-28
2022/04/26 10:31:35;;;;;;;5.40;4.40;;;;;;;14.55;62.13;99414.16;103531;1303;24214;-28
2022/04/26 10:34:11;;;;;;;7.50;3.60;;;;;;;14.88;60.55;99405.63;103477;1303;23955;-24
2022/04/26 10:36:40;;;;;;;2.80;2.60;;;;;;;15.16;59.32;99409.29;103514;1303;22499;-25
2022/04/26 10:39:09;;;;;;;15.90;3.40;;;;;;;15.38;55.95;99407.83;103465;1303;24158;-25
2022/04/26 10:41:40;;;;;;;3.40;2.50;;;;;;;15.14;55.74;99408.92;103557;1303;25171;-24
2022/04/26 10:44:12;;;;;;;3.30;2.60;;;;;;;15.12;57.26;99407.03;103593;1303;22547;-27
2022/04/26 10:46:41;;;;;;;3.20;2.90;;;;;;;14.97;55.99;99410.56;103547;1303;23609;-28
2022/04/26 10:49:18;;;;;;;5.60;3.50;;;;;;;14.55;58.03;99412.51;103598;1302;22633;-31
2022/04/26 10:51:47;;;;;;;4.60;4.00;;;;;;;14.05;59.66;99412.52;103456;1302;24236;-27
2022/04/26 10:54:16;;;;;;;4.40;3.80;;;;;;;13.47;62.59;99411.14;103478;1303;22510;-31
2022/04/26 10:56:45;;;;;;;4.50;3.80;;;;;;;13.64;62.93;99405.92;103540;1303;22552;-25
2022/04/26 10:59:14;;;;;;;3.10;2.80;;;;;;;13.27;62.09;99405.77;103526;1303;23608;-29
2022/04/26 11:01:43;;;;;;;3.80;2.90;;;;;;;14.24;61.76;99401.99;103551;1301;24350;-24
2022/04/26 11:04:15;;;;;;;4.40;3.20;;;;;;;14.80;60.86;99408.69;103510;1303;23905;-28
2022/04/26 11:06:44;;;;;;;5.90;2.80;;;;;;;15.04;59.18;99411.81;103486;1303;23193;-28
2022/04/26 11:09:15;;;;;;;3.40;2.70;;;;;;;14.62;59.15;99415.09;103529;1303;22501;-24
2022/04/26 11:11:48;;;;;;;11.30;2.90;;;;;;;13.76;58.37;99418.84;103555;1302;22714;-28
2022/04/26 11:14:19;;;;;;;4.60;3.80;;;;;;;12.89;60.61;99427.02;103324;1303;22988;-31
2022/04/26 11:16:53;;;;;;;5.20;3.70;;;;;;;12.60;62.01;99427.20;103609;1303;24246;-26
2022/04/26 11:19:28;;;;;;;2.90;2.40;;;;;;;12.70;63.04;99428.93;103475;1302;24236;-30
2022/04/26 11:22:03;;;;;;;5.00;3.80;;;;;;;12.64;63.35;99432.74;103504;1303;22511;-30
2022/04/26 11:29:39;;;;;;;4.70;3.80;;;;;;;13.04;64.44;99431.01;103544;1303;22509;-26
2022/04/26 11:32:09;;;;;;;5.00;3.10;;;;;;;13.53;62.19;99430.91;103392;1303;24217;-24
2022/04/26 11:34:42;;;;;;;4.60;2.40;;;;;;;13.63;58.57;99438.57;103348;1303;24233;-24
2022/04/26 11:37:12;;;;;;;1.70;1.50;;;;;;;13.93;58.53;99433.59;103595;1303;24215;-24
2022/04/26 11:39:42;;;;;;;3.50;2.50;;;;;;;14.18;57.46;99434.79;103539;1303;25221;-28
2022/04/26 11:42:12;;;;;;;2.80;2.20;;;;;;;14.08;57.56;99436.69;103606;1303;23912;-30
2022/04/26 11:44:48;;;;;;;2.60;2.30;;;;;;;13.82;58.53;99442.17;103487;1303;23842;-24
2022/04/26 11:47:18;;;;;;;1.60;1.00;;;;;;;13.69;58.67;99445.27;103507;1303;23769;-29
2022/04/26 11:49:47;;;;;;;1.30;0.90;;;;;;;14.75;58.77;99441.48;103532;1303;22790;-25
2022/04/26 11:52:23;;;;;;;1.40;1.20;;;;;;;15.18;56.27;99438.42;103497;1303;22596;-29
2022/04/26 11:54:52;;;;;;;3.30;1.80;;;;;;;15.15;55.82;99439.07;103547;1302;23863;-25
2022/04/26 11:57:21;;;;;;;1.60;1.50;;;;;;;14.83;56.05;99440.29;103536;1303;22505;-28
2022/04/26 11:59:50;;;;;;;2.70;1.90;;;;;;;14.32;55.85;99439.05;103523;1303;22510;-24
2022/04/26 12:02:19;;;;;;;3.60;1.80;;;;;;;14.40;57.99;99437.07;103541;1303;24359;-28
2022/04/26 12:04:48;;;;;;;2.70;1.90;;;;;;;14.47;58.52;99434.90;103505;1303;24299;-23
2022/04/26 12:07:17;;;;;;;3.30;2.00;;;;;;;14.66;58.56;99432.63;103478;1303;22500;-26
2022/04/26 12:09:47;;;;;;;2.80;2.50;;;;;;;15.25;57.53;99428.13;103567;1303;22514;-30
2022/04/26 12:12:15;;;;;;;2.80;1.30;;;;;;;15.78;54.89;99427.81;103611;1303;22505;-26
2022/04/26 12:14:44;;;;;;;2.50;1.80;;;;;;;16.34;54.05;99427.55;103550;1303;25348;-26
2022/04/26 12:17:18;;;;;;;3.50;1.70;;;;;;;15.99;52.69;99427.73;103099;1303;545591;-24
2022/04/26 12:19:50;;;;;;;2.10;1.30;;;;;;;15.91;51.93;99423.59;103589;1303;24336;-24
2022/04/26 12:22:19;;;;;;;1.10;1.00;;;;;;;15.74;52.12;99428.72;103481;1303;22787;-29
2022/04/26 12:24:50;;;;;;;0.80;0.70;;;;;;;15.78;51.59;99428.78;103550;1303;25126;-28
2022/04/26 12:27:22;;;;;;;1.10;0.80;;;;;;;16.30;50.91;99430.42;103547;1303;23815;-25
2022/04/26 12:29:51;;;;;;;1.20;1.10;;;;;;;16.58;51.57;99429.51;103639;1302;22499;-29
2022/04/26 12:32:23;;;;;;;2.50;1.30;;;;;;;16.70;49.90;99431.24;103550;1303;22739;-25
2022/04/26 12:34:54;;;;;;;2.80;2.00;;;;;;;16.33;49.88;99433.29;103598;1303;24398;-28
2022/04/26 12:37:26;;;;;;;5.80;3.10;;;;;;;16.25;49.75;99428.36;103566;1303;24019;-29
2022/04/26 12:39:58;;;;;;;9.00;5.40;;;;;;;16.28;50.28;99431.63;103575;1303;24233;-25
2022/04/26 12:42:27;;;;;;;5.10;3.20;;;;;;;15.61;49.37;99427.05;103520;1303;24218;-24
2022/04/26 12:44:58;;;;;;;9.50;6.00;;;;;;;14.91;49.99;99429.10;103536;1303;22517;-25
2022/04/26 12:52:39;;;;;;;4.90;3.10;;;;;;;13.92;53.69;99426.16;103505;1303;22943;-24
2022/04/26 12:55:08;;;;;;;7.40;3.40;;;;;;;-71.43;20.90;39767.80;101335;1303;1002872;-29
2022/04/26 12:57:44;;;;;;;5.00;3.30;;;;;;;-128.00;-1.00;-1.00;99916;1303;1004802;-27
2022/04/26 13:00:13;;;;;;;8.10;3.90;;;;;;;-128.00;-1.00;-1.00;100094;1303;1004335;-25
2022/04/26 13:02:42;;;;;;;5.00;2.90;;;;;;;-128.00;-1.00;-1.00;100128;1303;1003459;-25
2022/04/26 13:05:11;;;;;;;7.50;4.30;;;;;;;-128.00;-1.00;-1.00;100074;1303;1003252;-28
2022/04/26 13:07:41;;;;;;;2.70;2.20;;;;;;;-128.00;-1.00;-1.00;100046;1303;1003796;-25
2022/04/26 13:10:10;;;;;;;4.00;3.00;;;;;;;-128.00;-1.00;-1.00;100064;1303;1003601;-25
2022/04/26 13:12:39;;;;;;;2.60;2.20;;;;;;;-128.00;-1.00;-1.00;99965;1303;1002935;-25
2022/04/26 13:15:09;;;;;;;2.80;1.90;;;;;;;-128.00;-1.00;-1.00;100043;1303;1003575;-29
2022/04/26 13:17:38;;;;;;;8.80;3.70;;;;;;;-128.00;-1.00;-1.00;100087;1303;1003453;-28
2022/04/26 13:20:07;;;;;;;6.50;3.10;;;;;;;-128.00;-1.00;-1.00;100038;1303;1003073;-24
2022/04/26 13:22:37;;;;;;;7.80;4.60;;;;;;;-128.00;-1.00;-1.00;100108;1303;1004082;-25
2022/04/26 13:25:06;;;;;;;2.00;1.50;;;;;;;-128.00;-1.00;-1.00;100172;1303;1004268;-25
2022/04/26 13:27:37;;;;;;;2.70;1.90;;;;;;;-128.00;-1.00;-1.00;100030;1303;1003363;-25
2022/04/26 13:30:07;;;;;;;3.40;2.80;;;;;;;-128.00;-1.00;-1.00;100063;1303;1004873;-28
2022/04/26 13:32:36;;;;;;;6.10;3.40;;;;;;;-128.00;-1.00;-1.00;100109;1303;1003951;-28
2022/04/26 13:35:06;;;;;;;2.90;1.90;;;;;;;-128.00;-1.00;-1.00;100046;1303;1003787;-24
2022/04/26 13:37:35;;;;;;;2.60;2.30;;;;;;;-128.00;-1.00;-1.00;100087;1303;1004184;-29
2022/04/26 13:40:05;;;;;;;5.00;3.60;;;;;;;-128.00;-1.00;-1.00;100124;1303;1003849;-30
2022/04/26 13:42:35;;;;;;;6.00;3.40;;;;;;;-128.00;-1.00;-1.00;100074;1303;1003453;-25
2022/04/26 13:45:06;;;;;;;7.70;5.40;;;;;;;-128.00;-1.00;-1.00;100095;1303;1004437;-24
2022/04/26 13:47:36;;;;;;;4.30;3.50;;;;;;;-128.00;-1.00;-1.00;100084;1303;1003311;-28
2022/04/26 13:50:07;;;;;;;4.40;3.20;;;;;;;-128.00;-1.00;-1.00;100061;1303;1004196;-28
2022/04/26 13:52:36;;;;;;;3.80;3.40;;;;;;;-128.00;-1.00;-1.00;100049;1303;1004929;-28
2022/04/26 13:55:05;;;;;;;11.40;2.90;;;;;;;-128.00;-1.00;-1.00;100095;1303;1003798;-25
2022/04/26 13:57:34;;;;;;;2.90;2.10;;;;;;;-128.00;-1.00;-1.00;99996;1303;1003820;-26
2022/04/26 14:00:04;;;;;;;4.30;3.00;;;;;;;-128.00;-1.00;-1.00;100082;1303;1003689;-25
2022/04/26 14:02:35;;;;;;;3.60;3.00;;;;;;;-128.00;-1.00;-1.00;100074;1303;1004175;-28
2022/04/26 14:05:04;;;;;;;4.20;3.30;;;;;;;-128.00;-1.00;-1.00;100057;1303;1003296;-26
2022/04/26 14:07:33;;;;;;;4.10;3.10;;;;;;;-128.00;-1.00;-1.00;100071;1303;1003712;-24
2022/04/26 14:10:03;;;;;;;5.50;3.90;;;;;;;-128.00;-1.00;-1.00;100065;1303;1004739;-29
2022/04/26 14:12:34;;;;;;;4.20;2.70;;;;;;;-128.00;-1.00;-1.00;99876;1303;1003982;-28
2022/04/26 14:22:43;;;;;;;5.90;4.30;;;;;;;-128.00;-1.00;-1.00;100080;1303;1003476;-29
2022/04/26 14:25:13;;;;;;;5.10;3.80;;;;;;;-128.00;-1.00;-1.00;99919;1303;1003398;-25
2022/04/26 14:27:45;;;;;;;4.60;3.30;;;;;;;-128.00;-1.00;-1.00;100070;1303;1003061;-31
2022/04/26 14:30:15;;;;;;;7.40;3.10;;;;;;;-128.00;-1.00;-1.00;100047;1303;1002756;-27
2022/04/26 14:32:44;;;;;;;3.80;3.30;;;;;;;-128.00;-1.00;-1.00;100081;1303;1004702;-30
2022/04/26 14:35:13;;;;;;;8.80;5.80;;;;;;;-128.00;-1.00;-1.00;100043;1303;1003893;-30
2022/04/26 14:37:42;;;;;;;14.40;8.20;;;;;;;-128.00;-1.00;-1.00;100086;1303;1003467;-27
2022/04/26 14:40:12;;;;;;;16.60;8.50;;;;;;;-128.00;-1.00;-1.00;100112;1303;1003424;-30
2022/04/26 14:42:45;;;;;;;10.60;8.00;;;;;;;-128.00;-1.00;-1.00;100079;1303;1004299;-30
2022/04/26 14:45:14;;;;;;;10.00;7.90;;;;;;;-128.00;-1.00;-1.00;100044;1303;1003725;-29
2022/04/26 14:47:43;;;;;;;7.10;5.50;;;;;;;-128.00;-1.00;-1.00;100048;1303;1004697;-26
2022/04/26 14:50:13;;;;;;;5.60;4.30;;;;;;;-128.00;-1.00;-1.00;100104;1303;1003937;-24
2022/04/26 14:52:42;;;;;;;37.60;17.30;;;;;;;-128.00;-1.00;-1.00;100037;1303;1003259;-25
2022/04/26 14:55:11;;;;;;;20.40;9.80;;;;;;;-128.00;-1.00;-1.00;100080;1303;1003701;-29
2022/04/26 14:57:41;;;;;;;14.00;8.00;;;;;;;-128.00;-1.00;-1.00;100114;1303;1004084;-24
2022/04/26 15:00:10;;;;;;;18.60;10.30;;;;;;;-128.00;-1.00;-1.00;100101;1302;1003986;-31
2022/04/26 15:02:39;;;;;;;12.30;7.00;;;;;;;-128.00;-1.00;-1.00;100064;1303;1004065;-25
2022/04/26 15:05:09;;;;;;;14.70;6.30;;;;;;;-128.00;-1.00;-1.00;100059;1303;1003487;-25
2022/04/26 15:10:11;;;;;;;11.20;7.00;;;;;;;-128.00;-1.00;-1.00;100098;1303;1003456;-25
2022/04/26 15:17:48;;;;;;;11.40;7.10;;;;;;;-128.00;-1.00;-1.00;100052;1303;1003051;-25
2022/04/26 15:20:18;;;;;;;21.80;10.00;;;;;;;-128.00;-1.00;-1.00;100045;1302;1003089;-28
2022/04/26 15:22:47;;;;;;;14.30;9.10;;;;;;;-128.00;-1.00;-1.00;100097;1303;1003457;-29
2022/04/26 15:25:16;;;;;;;9.50;7.30;;;;;;;-128.00;-1.00;-1.00;100096;1303;1003491;-26
2022/04/26 15:27:46;;;;;;;9.50;7.20;;;;;;;-128.00;-1.00;-1.00;100092;1303;1003740;-27
2022/04/26 15:30:17;;;;;;;20.10;13.00;;;;;;;-128.00;-1.00;-1.00;100088;1303;1002880;-25
2022/04/26 15:32:46;;;;;;;14.70;8.00;;;;;;;-128.00;-1.00;-1.00;100126;1303;1004034;-29
2022/04/26 15:35:15;;;;;;;11.40;6.60;;;;;;;-128.00;-1.00;-1.00;100075;1303;1004798;-29
2022/04/26 15:37:44;;;;;;;13.70;9.20;;;;;;;-128.00;-1.00;-1.00;100127;1303;1003204;-29
2022/04/26 15:40:13;;;;;;;7.40;5.70;;;;;;;-128.00;-1.00;-1.00;100025;1303;1003287;-29
2022/04/26 15:42:42;;;;;;;9.70;7.60;;;;;;;-128.00;-1.00;-1.00;100109;1303;1003515;-30
2022/04/26 15:45:11;;;;;;;15.50;10.10;;;;;;;-128.00;-1.00;-1.00;100044;1303;1003551;-29